sensor_id;sensor_type;location;lat;lon;timestamp;temperature;humidity
58582;DHT22;44361;51.476;5.700;2023-06-26T00:01:38;22.10;99.90
58582;DHT22;44361;51.476;5.700;2023-06-26T00:04:05;22.10;99.90
58582;DHT22;44361;51.476;5.700;2023-06-26T00:06:30;22.10;99.90
58582;DHT22;44361;51.476;5.700;2023-06-26T00:08:56;22.10;99.90
58582;DHT22;44361;51.476;5.700;2023-06-26T00:11:24;22.10;99.90
58582;DHT22;44361;51.476;5.700;2023-06-26T00:13:50;22.10;99.90
58582;DHT22;44361;51.476;5.700;2023-06-26T00:16:16;22.00;99.90
58582;DHT22;44361;51.476;5.700;2023-06-26T00:18:41;22.10;99.90
58582;DHT22;44361;51.476;5.700;2023-06-26T00:21:07;22.10;99.90
58582;DHT22;44361;51.476;5.700;2023-06-26T00:23:32;22.20;99.90
58582;DHT22;44361;51.476;5.700;2023-06-26T00:26:04;22.20;99.90
58582;DHT22;44361;51.476;5.700;2023-06-26T00:28:30;22.20;99.90
58582;DHT22;44361;51.476;5.700;2023-06-26T00:30:55;22.20;99.90
58582;DHT22;44361;51.476;5.700;2023-06-26T00:33:21;22.20;99.90
58582;DHT22;44361;51.476;5.700;2023-06-26T00:35:47;22.20;99.90
58582;DHT22;44361;51.476;5.700;2023-06-26T00:38:12;22.30;99.90
58582;DHT22;44361;51.476;5.700;2023-06-26T00:40:38;22.30;99.90
58582;DHT22;44361;51.476;5.700;2023-06-26T00:43:04;22.30;99.90
58582;DHT22;44361;51.476;5.700;2023-06-26T00:45:29;22.20;99.90
58582;DHT22;44361;51.476;5.700;2023-06-26T00:47:55;22.20;99.90
58582;DHT22;44361;51.476;5.700;2023-06-26T00:50:20;22.20;99.90
58582;DHT22;44361;51.476;5.700;2023-06-26T00:52:46;22.10;99.90
58582;DHT22;44361;51.476;5.700;2023-06-26T00:55:12;22.00;99.90
58582;DHT22;44361;51.476;5.700;2023-06-26T00:57:38;22.00;99.90
58582;DHT22;44361;51.476;5.700;2023-06-26T01:00:04;21.90;99.90
58582;DHT22;44361;51.476;5.700;2023-06-26T01:02:30;21.90;99.90
58582;DHT22;44361;51.476;5.700;2023-06-26T01:05:01;21.90;99.90
58582;DHT22;44361;51.476;5.700;2023-06-26T01:07:28;21.80;99.90
58582;DHT22;44361;51.476;5.700;2023-06-26T01:09:54;21.80;99.90
58582;DHT22;44361;51.476;5.700;2023-06-26T01:12:20;21.70;99.90
58582;DHT22;44361;51.476;5.700;2023-06-26T01:14:45;21.70;99.90
58582;DHT22;44361;51.476;5.700;2023-06-26T01:17:11;21.70;99.90
58582;DHT22;44361;51.476;5.700;2023-06-26T01:19:41;21.60;99.90
58582;DHT22;44361;51.476;5.700;2023-06-26T01:22:31;21.60;99.90
58582;DHT22;44361;51.476;5.700;2023-06-26T01:27:52;21.70;99.90
58582;DHT22;44361;51.476;5.700;2023-06-26T01:30:19;21.70;99.90
58582;DHT22;44361;51.476;5.700;2023-06-26T01:32:45;21.70;99.90
58582;DHT22;44361;51.476;5.700;2023-06-26T01:35:12;21.90;99.90
58582;DHT22;44361;51.476;5.700;2023-06-26T01:37:37;22.00;99.90
58582;DHT22;44361;51.476;5.700;2023-06-26T01:40:03;22.20;99.90
58582;DHT22;44361;51.476;5.700;2023-06-26T01:42:32;22.30;99.90
58582;DHT22;44361;51.476;5.700;2023-06-26T01:45:03;22.30;99.90
58582;DHT22;44361;51.476;5.700;2023-06-26T01:47:32;22.30;99.90
58582;DHT22;44361;51.476;5.700;2023-06-26T01:50:09;22.30;99.90
58582;DHT22;44361;51.476;5.700;2023-06-26T01:52:40;22.30;99.90
58582;DHT22;44361;51.476;5.700;2023-06-26T01:55:32;22.30;99.90
58582;DHT22;44361;51.476;5.700;2023-06-26T01:58:02;22.20;99.90
58582;DHT22;44361;51.476;5.700;2023-06-26T02:00:28;22.10;99.90
58582;DHT22;44361;51.476;5.700;2023-06-26T02:02:54;22.10;99.90
58582;DHT22;44361;51.476;5.700;2023-06-26T02:05:20;22.00;99.90
58582;DHT22;44361;51.476;5.700;2023-06-26T02:07:45;22.00;99.90
58582;DHT22;44361;51.476;5.700;2023-06-26T02:10:11;21.90;99.90
58582;DHT22;44361;51.476;5.700;2023-06-26T02:12:37;21.80;99.90
58582;DHT22;44361;51.476;5.700;2023-06-26T02:15:03;21.70;99.90
58582;DHT22;44361;51.476;5.700;2023-06-26T02:17:29;21.70;99.90
58582;DHT22;44361;51.476;5.700;2023-06-26T02:19:55;21.60;99.90
58582;DHT22;44361;51.476;5.700;2023-06-26T02:22:20;21.60;99.90
58582;DHT22;44361;51.476;5.700;2023-06-26T02:24:46;21.60;99.90
58582;DHT22;44361;51.476;5.700;2023-06-26T02:27:12;21.50;99.90
58582;DHT22;44361;51.476;5.700;2023-06-26T02:29:38;21.40;99.90
58582;DHT22;44361;51.476;5.700;2023-06-26T02:32:04;21.40;99.90
58582;DHT22;44361;51.476;5.700;2023-06-26T02:34:30;21.30;99.90
58582;DHT22;44361;51.476;5.700;2023-06-26T02:36:56;21.20;99.90
58582;DHT22;44361;51.476;5.700;2023-06-26T02:39:22;21.20;99.90
58582;DHT22;44361;51.476;5.700;2023-06-26T02:41:47;21.10;99.90
58582;DHT22;44361;51.476;5.700;2023-06-26T02:44:13;21.00;99.90
58582;DHT22;44361;51.476;5.700;2023-06-26T02:46:39;20.90;99.90
58582;DHT22;44361;51.476;5.700;2023-06-26T02:49:06;20.80;99.90
58582;DHT22;44361;51.476;5.700;2023-06-26T02:51:32;20.70;99.90
58582;DHT22;44361;51.476;5.700;2023-06-26T02:53:58;20.70;99.90
58582;DHT22;44361;51.476;5.700;2023-06-26T02:56:23;20.70;99.90
58582;DHT22;44361;51.476;5.700;2023-06-26T02:58:49;20.70;99.90
58582;DHT22;44361;51.476;5.700;2023-06-26T03:01:15;20.70;99.90
58582;DHT22;44361;51.476;5.700;2023-06-26T03:03:41;20.60;99.90
58582;DHT22;44361;51.476;5.700;2023-06-26T03:06:07;20.60;99.90
58582;DHT22;44361;51.476;5.700;2023-06-26T03:08:35;20.60;99.90
58582;DHT22;44361;51.476;5.700;2023-06-26T03:11:01;20.70;99.90
58582;DHT22;44361;51.476;5.700;2023-06-26T03:13:26;20.70;99.90
58582;DHT22;44361;51.476;5.700;2023-06-26T03:15:52;20.80;99.90
58582;DHT22;44361;51.476;5.700;2023-06-26T03:18:17;20.80;99.90
58582;DHT22;44361;51.476;5.700;2023-06-26T03:20:43;20.80;99.90
58582;DHT22;44361;51.476;5.700;2023-06-26T03:23:08;20.80;99.90
58582;DHT22;44361;51.476;5.700;2023-06-26T03:25:34;20.70;99.90
58582;DHT22;44361;51.476;5.700;2023-06-26T03:27:59;20.70;99.90
58582;DHT22;44361;51.476;5.700;2023-06-26T03:30:25;20.60;99.90
58582;DHT22;44361;51.476;5.700;2023-06-26T03:32:50;20.50;99.90
58582;DHT22;44361;51.476;5.700;2023-06-26T03:35:16;20.50;99.90
58582;DHT22;44361;51.476;5.700;2023-06-26T03:37:41;20.50;99.90
58582;DHT22;44361;51.476;5.700;2023-06-26T03:40:08;20.50;99.90
58582;DHT22;44361;51.476;5.700;2023-06-26T03:42:33;20.40;99.90
58582;DHT22;44361;51.476;5.700;2023-06-26T03:44:59;20.40;99.90
58582;DHT22;44361;51.476;5.700;2023-06-26T03:47:24;20.40;99.90
58582;DHT22;44361;51.476;5.700;2023-06-26T03:49:50;20.40;99.90
58582;DHT22;44361;51.476;5.700;2023-06-26T03:52:15;20.30;99.90
58582;DHT22;44361;51.476;5.700;2023-06-26T03:54:41;20.30;99.90
58582;DHT22;44361;51.476;5.700;2023-06-26T03:57:07;20.20;99.90
58582;DHT22;44361;51.476;5.700;2023-06-26T03:59:32;20.20;99.90
58582;DHT22;44361;51.476;5.700;2023-06-26T04:01:58;20.20;99.90
58582;DHT22;44361;51.476;5.700;2023-06-26T04:04:24;20.10;99.90
58582;DHT22;44361;51.476;5.700;2023-06-26T04:06:49;20.10;99.90
58582;DHT22;44361;51.476;5.700;2023-06-26T04:09:16;20.10;99.90
58582;DHT22;44361;51.476;5.700;2023-06-26T04:11:41;20.00;99.90
58582;DHT22;44361;51.476;5.700;2023-06-26T04:14:07;20.00;99.90
58582;DHT22;44361;51.476;5.700;2023-06-26T04:16:32;20.00;99.90
58582;DHT22;44361;51.476;5.700;2023-06-26T04:18:58;19.90;99.90
58582;DHT22;44361;51.476;5.700;2023-06-26T04:21:23;20.00;99.90
58582;DHT22;44361;51.476;5.700;2023-06-26T04:23:53;19.90;99.90
58582;DHT22;44361;51.476;5.700;2023-06-26T04:26:18;19.80;99.90
58582;DHT22;44361;51.476;5.700;2023-06-26T04:28:44;19.90;99.90
58582;DHT22;44361;51.476;5.700;2023-06-26T04:31:10;19.90;99.90
58582;DHT22;44361;51.476;5.700;2023-06-26T04:33:36;19.90;99.90
58582;DHT22;44361;51.476;5.700;2023-06-26T04:36:03;20.00;99.90
58582;DHT22;44361;51.476;5.700;2023-06-26T04:38:30;20.10;99.90
58582;DHT22;44361;51.476;5.700;2023-06-26T04:40:56;20.10;99.90
58582;DHT22;44361;51.476;5.700;2023-06-26T04:43:21;20.20;99.90
58582;DHT22;44361;51.476;5.700;2023-06-26T04:45:47;20.40;99.90
58582;DHT22;44361;51.476;5.700;2023-06-26T04:48:13;20.40;99.90
58582;DHT22;44361;51.476;5.700;2023-06-26T04:50:39;20.30;99.90
58582;DHT22;44361;51.476;5.700;2023-06-26T04:53:05;20.30;99.90
58582;DHT22;44361;51.476;5.700;2023-06-26T04:55:31;20.30;99.90
58582;DHT22;44361;51.476;5.700;2023-06-26T04:57:56;20.20;99.90
58582;DHT22;44361;51.476;5.700;2023-06-26T05:00:22;20.20;99.90
58582;DHT22;44361;51.476;5.700;2023-06-26T05:02:47;20.30;99.90
58582;DHT22;44361;51.476;5.700;2023-06-26T05:05:13;20.70;99.90
58582;DHT22;44361;51.476;5.700;2023-06-26T05:07:41;21.30;99.90
58582;DHT22;44361;51.476;5.700;2023-06-26T05:10:06;21.80;99.90
58582;DHT22;44361;51.476;5.700;2023-06-26T05:12:33;21.90;99.90
58582;DHT22;44361;51.476;5.700;2023-06-26T05:14:58;22.00;99.90
58582;DHT22;44361;51.476;5.700;2023-06-26T05:17:24;22.60;99.90
58582;DHT22;44361;51.476;5.700;2023-06-26T05:19:49;22.40;99.90
58582;DHT22;44361;51.476;5.700;2023-06-26T05:22:16;22.00;99.90
58582;DHT22;44361;51.476;5.700;2023-06-26T05:24:43;21.80;99.90
58582;DHT22;44361;51.476;5.700;2023-06-26T05:27:11;21.40;99.90
58582;DHT22;44361;51.476;5.700;2023-06-26T05:29:44;21.30;99.90
58582;DHT22;44361;51.476;5.700;2023-06-26T05:32:11;21.20;99.90
58582;DHT22;44361;51.476;5.700;2023-06-26T05:34:38;21.10;99.90
58582;DHT22;44361;51.476;5.700;2023-06-26T05:37:05;20.90;99.90
58582;DHT22;44361;51.476;5.700;2023-06-26T05:39:32;20.70;99.90
58582;DHT22;44361;51.476;5.700;2023-06-26T05:41:58;20.80;99.90
58582;DHT22;44361;51.476;5.700;2023-06-26T05:44:23;20.90;99.90
58582;DHT22;44361;51.476;5.700;2023-06-26T05:46:49;21.60;99.90
58582;DHT22;44361;51.476;5.700;2023-06-26T05:49:15;22.40;99.90
58582;DHT22;44361;51.476;5.700;2023-06-26T05:51:40;22.20;99.90
58582;DHT22;44361;51.476;5.700;2023-06-26T05:54:06;21.90;99.90
58582;DHT22;44361;51.476;5.700;2023-06-26T05:56:32;21.50;99.90
58582;DHT22;44361;51.476;5.700;2023-06-26T05:58:58;21.40;99.90
58582;DHT22;44361;51.476;5.700;2023-06-26T06:01:24;21.60;99.90
58582;DHT22;44361;51.476;5.700;2023-06-26T06:03:49;22.20;99.90
58582;DHT22;44361;51.476;5.700;2023-06-26T06:06:15;22.60;99.90
58582;DHT22;44361;51.476;5.700;2023-06-26T06:08:41;22.30;99.90
58582;DHT22;44361;51.476;5.700;2023-06-26T06:11:07;22.20;99.90
58582;DHT22;44361;51.476;5.700;2023-06-26T06:13:32;22.40;99.90
58582;DHT22;44361;51.476;5.700;2023-06-26T06:15:58;22.80;99.90
58582;DHT22;44361;51.476;5.700;2023-06-26T06:18:23;22.80;99.90
58582;DHT22;44361;51.476;5.700;2023-06-26T06:20:49;23.00;99.90
58582;DHT22;44361;51.476;5.700;2023-06-26T06:23:14;23.20;99.90
58582;DHT22;44361;51.476;5.700;2023-06-26T06:25:40;23.20;99.90
58582;DHT22;44361;51.476;5.700;2023-06-26T06:28:05;23.10;99.90
58582;DHT22;44361;51.476;5.700;2023-06-26T06:30:31;23.20;99.90
58582;DHT22;44361;51.476;5.700;2023-06-26T06:32:57;23.30;99.90
58582;DHT22;44361;51.476;5.700;2023-06-26T06:35:23;23.50;99.90
58582;DHT22;44361;51.476;5.700;2023-06-26T06:37:49;23.20;99.90
58582;DHT22;44361;51.476;5.700;2023-06-26T06:40:15;23.30;99.90
58582;DHT22;44361;51.476;5.700;2023-06-26T06:42:40;23.30;99.90
58582;DHT22;44361;51.476;5.700;2023-06-26T06:45:06;22.80;99.90
58582;DHT22;44361;51.476;5.700;2023-06-26T06:47:33;23.00;99.90
58582;DHT22;44361;51.476;5.700;2023-06-26T06:49:59;23.30;99.90
58582;DHT22;44361;51.476;5.700;2023-06-26T06:52:28;23.20;99.90
58582;DHT22;44361;51.476;5.700;2023-06-26T06:54:57;23.40;99.90
58582;DHT22;44361;51.476;5.700;2023-06-26T06:57:30;23.40;99.90
58582;DHT22;44361;51.476;5.700;2023-06-26T06:59:56;23.20;99.90
58582;DHT22;44361;51.476;5.700;2023-06-26T07:02:21;23.00;99.90
58582;DHT22;44361;51.476;5.700;2023-06-26T07:04:47;23.10;99.90
58582;DHT22;44361;51.476;5.700;2023-06-26T07:07:13;22.60;99.90
58582;DHT22;44361;51.476;5.700;2023-06-26T07:09:41;22.80;99.90
58582;DHT22;44361;51.476;5.700;2023-06-26T07:12:07;22.70;99.90
58582;DHT22;44361;51.476;5.700;2023-06-26T07:14:32;23.10;99.90
58582;DHT22;44361;51.476;5.700;2023-06-26T07:16:58;23.70;99.90
58582;DHT22;44361;51.476;5.700;2023-06-26T07:19:23;23.60;99.90
58582;DHT22;44361;51.476;5.700;2023-06-26T07:21:49;23.50;99.30
58582;DHT22;44361;51.476;5.700;2023-06-26T07:24:15;23.60;99.40
58582;DHT22;44361;51.476;5.700;2023-06-26T07:26:40;23.60;99.10
58582;DHT22;44361;51.476;5.700;2023-06-26T07:29:06;23.40;99.30
58582;DHT22;44361;51.476;5.700;2023-06-26T07:31:32;23.00;99.10
58582;DHT22;44361;51.476;5.700;2023-06-26T07:33:57;22.90;99.90
58582;DHT22;44361;51.476;5.700;2023-06-26T07:36:23;22.90;99.90
58582;DHT22;44361;51.476;5.700;2023-06-26T07:38:48;23.10;99.90
58582;DHT22;44361;51.476;5.700;2023-06-26T07:41:14;23.00;99.40
58582;DHT22;44361;51.476;5.700;2023-06-26T07:43:39;23.00;99.70
58582;DHT22;44361;51.476;5.700;2023-06-26T07:46:05;22.80;99.60
58582;DHT22;44361;51.476;5.700;2023-06-26T07:48:30;22.70;99.90
58582;DHT22;44361;51.476;5.700;2023-06-26T07:50:56;22.70;99.90
58582;DHT22;44361;51.476;5.700;2023-06-26T07:53:21;22.80;99.90
58582;DHT22;44361;51.476;5.700;2023-06-26T07:55:47;22.70;99.90
58582;DHT22;44361;51.476;5.700;2023-06-26T07:58:12;22.60;99.90
58582;DHT22;44361;51.476;5.700;2023-06-26T08:00:38;22.50;99.90
58582;DHT22;44361;51.476;5.700;2023-06-26T08:03:04;23.10;99.90
58582;DHT22;44361;51.476;5.700;2023-06-26T08:05:29;23.40;99.60
58582;DHT22;44361;51.476;5.700;2023-06-26T08:07:55;23.30;99.90
58582;DHT22;44361;51.476;5.700;2023-06-26T08:10:20;23.20;99.90
58582;DHT22;44361;51.476;5.700;2023-06-26T08:12:46;23.00;99.90
58582;DHT22;44361;51.476;5.700;2023-06-26T08:15:12;22.80;99.90
58582;DHT22;44361;51.476;5.700;2023-06-26T08:17:38;23.10;99.90
58582;DHT22;44361;51.476;5.700;2023-06-26T08:20:04;23.20;99.90
58582;DHT22;44361;51.476;5.700;2023-06-26T08:22:30;23.40;99.90
58582;DHT22;44361;51.476;5.700;2023-06-26T08:24:56;23.50;99.90
58582;DHT22;44361;51.476;5.700;2023-06-26T08:27:21;23.30;98.80
58582;DHT22;44361;51.476;5.700;2023-06-26T08:29:47;22.50;99.80
58582;DHT22;44361;51.476;5.700;2023-06-26T08:32:13;22.30;99.90
58582;DHT22;44361;51.476;5.700;2023-06-26T08:34:38;23.00;99.90
58582;DHT22;44361;51.476;5.700;2023-06-26T08:37:04;23.30;99.00
58582;DHT22;44361;51.476;5.700;2023-06-26T08:39:30;23.10;99.30
58582;DHT22;44361;51.476;5.700;2023-06-26T08:41:55;23.10;98.50
58582;DHT22;44361;51.476;5.700;2023-06-26T08:44:21;23.60;98.80
58582;DHT22;44361;51.476;5.700;2023-06-26T08:46:51;24.10;97.70
58582;DHT22;44361;51.476;5.700;2023-06-26T08:49:21;24.20;96.40
58582;DHT22;44361;51.476;5.700;2023-06-26T08:51:52;24.20;97.20
58582;DHT22;44361;51.476;5.700;2023-06-26T08:54:31;24.70;96.20
58582;DHT22;44361;51.476;5.700;2023-06-26T08:56:59;25.00;92.40
58582;DHT22;44361;51.476;5.700;2023-06-26T08:59:25;24.50;92.00
58582;DHT22;44361;51.476;5.700;2023-06-26T09:01:50;24.50;94.30
58582;DHT22;44361;51.476;5.700;2023-06-26T09:04:16;24.30;91.10
58582;DHT22;44361;51.476;5.700;2023-06-26T09:06:41;24.30;90.90
58582;DHT22;44361;51.476;5.700;2023-06-26T09:09:07;24.40;90.60
58582;DHT22;44361;51.476;5.700;2023-06-26T09:11:33;24.10;90.70
58582;DHT22;44361;51.476;5.700;2023-06-26T09:13:59;24.10;90.40
58582;DHT22;44361;51.476;5.700;2023-06-26T09:16:25;24.10;90.00
58582;DHT22;44361;51.476;5.700;2023-06-26T09:18:55;24.40;91.00
58582;DHT22;44361;51.476;5.700;2023-06-26T09:21:21;24.70;90.60
58582;DHT22;44361;51.476;5.700;2023-06-26T09:23:49;25.10;90.70
58582;DHT22;44361;51.476;5.700;2023-06-26T09:26:15;25.10;89.00
58582;DHT22;44361;51.476;5.700;2023-06-26T09:28:42;25.00;88.70
58582;DHT22;44361;51.476;5.700;2023-06-26T09:31:08;25.20;89.20
58582;DHT22;44361;51.476;5.700;2023-06-26T09:33:37;25.30;84.70
58582;DHT22;44361;51.476;5.700;2023-06-26T09:36:07;25.10;84.20
58582;DHT22;44361;51.476;5.700;2023-06-26T09:38:34;24.50;88.60
58582;DHT22;44361;51.476;5.700;2023-06-26T09:41:00;24.10;83.70
58582;DHT22;44361;51.476;5.700;2023-06-26T09:43:26;24.30;83.50
58582;DHT22;44361;51.476;5.700;2023-06-26T09:45:52;24.50;86.80
58582;DHT22;44361;51.476;5.700;2023-06-26T09:48:20;24.70;85.50
58582;DHT22;44361;51.476;5.700;2023-06-26T09:50:46;24.90;84.30
58582;DHT22;44361;51.476;5.700;2023-06-26T09:53:13;24.30;84.40
58582;DHT22;44361;51.476;5.700;2023-06-26T09:55:39;23.70;84.80
58582;DHT22;44361;51.476;5.700;2023-06-26T09:58:10;23.20;86.10
58582;DHT22;44361;51.476;5.700;2023-06-26T10:00:40;22.90;86.30
58582;DHT22;44361;51.476;5.700;2023-06-26T10:03:06;23.10;86.80
58582;DHT22;44361;51.476;5.700;2023-06-26T10:05:31;23.60;85.60
58582;DHT22;44361;51.476;5.700;2023-06-26T10:07:57;23.90;79.30
58582;DHT22;44361;51.476;5.700;2023-06-26T10:10:24;24.10;76.50
58582;DHT22;44361;51.476;5.700;2023-06-26T10:12:55;24.50;77.70
58582;DHT22;44361;51.476;5.700;2023-06-26T10:15:24;24.60;77.20
58582;DHT22;44361;51.476;5.700;2023-06-26T10:17:50;24.60;77.30
58582;DHT22;44361;51.476;5.700;2023-06-26T10:20:18;24.30;78.40
58582;DHT22;44361;51.476;5.700;2023-06-26T10:22:46;24.40;80.20
58582;DHT22;44361;51.476;5.700;2023-06-26T10:25:16;24.50;78.40
58582;DHT22;44361;51.476;5.700;2023-06-26T10:27:45;24.10;78.80
58582;DHT22;44361;51.476;5.700;2023-06-26T10:30:25;23.90;79.70
58582;DHT22;44361;51.476;5.700;2023-06-26T10:32:52;23.70;76.30
58582;DHT22;44361;51.476;5.700;2023-06-26T10:35:18;23.90;76.00
58582;DHT22;44361;51.476;5.700;2023-06-26T10:37:45;24.60;75.80
58582;DHT22;44361;51.476;5.700;2023-06-26T10:40:12;24.60;76.50
58582;DHT22;44361;51.476;5.700;2023-06-26T10:42:39;25.10;75.00
58582;DHT22;44361;51.476;5.700;2023-06-26T10:45:16;25.20;75.60
58582;DHT22;44361;51.476;5.700;2023-06-26T10:47:43;24.60;75.80
58582;DHT22;44361;51.476;5.700;2023-06-26T10:50:20;24.10;77.30
58582;DHT22;44361;51.476;5.700;2023-06-26T10:55:41;25.00;71.10
58582;DHT22;44361;51.476;5.700;2023-06-26T10:58:30;25.00;70.90
58582;DHT22;44361;51.476;5.700;2023-06-26T11:03:41;25.00;72.90
58582;DHT22;44361;51.476;5.700;2023-06-26T11:06:10;25.70;69.30
58582;DHT22;44361;51.476;5.700;2023-06-26T11:08:53;25.90;67.80
58582;DHT22;44361;51.476;5.700;2023-06-26T11:11:22;25.50;69.60
58582;DHT22;44361;51.476;5.700;2023-06-26T11:14:07;25.40;69.80
58582;DHT22;44361;51.476;5.700;2023-06-26T11:16:34;25.40;69.40
58582;DHT22;44361;51.476;5.700;2023-06-26T11:19:00;25.20;70.10
58582;DHT22;44361;51.476;5.700;2023-06-26T11:21:26;25.00;70.10
58582;DHT22;44361;51.476;5.700;2023-06-26T11:23:53;24.70;68.50
58582;DHT22;44361;51.476;5.700;2023-06-26T11:26:20;24.20;69.30
58582;DHT22;44361;51.476;5.700;2023-06-26T11:28:54;24.10;67.80
58582;DHT22;44361;51.476;5.700;2023-06-26T11:31:28;23.70;67.50
58582;DHT22;44361;51.476;5.700;2023-06-26T11:33:57;24.10;67.10
58582;DHT22;44361;51.476;5.700;2023-06-26T11:36:24;24.50;65.90
58582;DHT22;44361;51.476;5.700;2023-06-26T11:39:01;24.70;67.50
58582;DHT22;44361;51.476;5.700;2023-06-26T11:41:29;24.80;66.20
58582;DHT22;44361;51.476;5.700;2023-06-26T11:43:55;24.80;66.20
58582;DHT22;44361;51.476;5.700;2023-06-26T11:46:22;24.90;65.20
58582;DHT22;44361;51.476;5.700;2023-06-26T11:48:48;24.90;64.20
58582;DHT22;44361;51.476;5.700;2023-06-26T11:51:15;24.80;64.20
58582;DHT22;44361;51.476;5.700;2023-06-26T11:53:41;25.10;67.90
58582;DHT22;44361;51.476;5.700;2023-06-26T11:56:09;25.70;63.10
58582;DHT22;44361;51.476;5.700;2023-06-26T11:58:35;25.30;60.30
58582;DHT22;44361;51.476;5.700;2023-06-26T12:01:00;25.00;59.70
58582;DHT22;44361;51.476;5.700;2023-06-26T12:03:26;24.90;62.30
58582;DHT22;44361;51.476;5.700;2023-06-26T12:05:51;24.90;61.90
58582;DHT22;44361;51.476;5.700;2023-06-26T12:08:18;25.20;63.70
58582;DHT22;44361;51.476;5.700;2023-06-26T12:10:44;25.70;64.90
58582;DHT22;44361;51.476;5.700;2023-06-26T12:13:10;25.70;62.50
58582;DHT22;44361;51.476;5.700;2023-06-26T12:15:36;25.50;61.80
58582;DHT22;44361;51.476;5.700;2023-06-26T12:18:08;25.10;64.60
58582;DHT22;44361;51.476;5.700;2023-06-26T12:20:39;24.60;64.40
58582;DHT22;44361;51.476;5.700;2023-06-26T12:23:11;24.30;63.90
58582;DHT22;44361;51.476;5.700;2023-06-26T12:25:37;24.20;62.90
58582;DHT22;44361;51.476;5.700;2023-06-26T12:28:03;24.20;64.60
58582;DHT22;44361;51.476;5.700;2023-06-26T12:30:28;24.50;65.50
58582;DHT22;44361;51.476;5.700;2023-06-26T12:32:54;25.20;66.80
58582;DHT22;44361;51.476;5.700;2023-06-26T12:35:20;25.90;65.60
58582;DHT22;44361;51.476;5.700;2023-06-26T12:37:46;26.00;63.80
58582;DHT22;44361;51.476;5.700;2023-06-26T12:40:19;25.80;59.90
58582;DHT22;44361;51.476;5.700;2023-06-26T12:42:47;25.50;61.60
58582;DHT22;44361;51.476;5.700;2023-06-26T12:45:14;25.80;60.30
58582;DHT22;44361;51.476;5.700;2023-06-26T12:47:39;25.70;59.10
58582;DHT22;44361;51.476;5.700;2023-06-26T12:50:07;25.70;59.70
58582;DHT22;44361;51.476;5.700;2023-06-26T12:52:33;26.10;62.20
58582;DHT22;44361;51.476;5.700;2023-06-26T12:54:58;25.20;66.00
58582;DHT22;44361;51.476;5.700;2023-06-26T12:57:24;24.00;67.90
58582;DHT22;44361;51.476;5.700;2023-06-26T12:59:50;24.00;67.40
58582;DHT22;44361;51.476;5.700;2023-06-26T13:02:16;24.30;66.90
58582;DHT22;44361;51.476;5.700;2023-06-26T13:04:41;24.50;66.50
58582;DHT22;44361;51.476;5.700;2023-06-26T13:07:10;24.70;66.00
58582;DHT22;44361;51.476;5.700;2023-06-26T13:09:36;24.40;67.90
58582;DHT22;44361;51.476;5.700;2023-06-26T13:12:02;24.80;68.20
58582;DHT22;44361;51.476;5.700;2023-06-26T13:14:29;25.00;66.50
58582;DHT22;44361;51.476;5.700;2023-06-26T13:16:54;24.70;66.70
58582;DHT22;44361;51.476;5.700;2023-06-26T13:19:20;25.00;66.90
58582;DHT22;44361;51.476;5.700;2023-06-26T13:21:46;25.20;68.00
58582;DHT22;44361;51.476;5.700;2023-06-26T13:24:11;25.40;67.10
58582;DHT22;44361;51.476;5.700;2023-06-26T13:26:37;25.20;67.20
58582;DHT22;44361;51.476;5.700;2023-06-26T13:29:03;25.10;68.10
58582;DHT22;44361;51.476;5.700;2023-06-26T13:31:28;25.30;64.20
58582;DHT22;44361;51.476;5.700;2023-06-26T13:33:58;24.80;67.10
58582;DHT22;44361;51.476;5.700;2023-06-26T13:36:23;24.70;66.00
58582;DHT22;44361;51.476;5.700;2023-06-26T13:38:50;24.30;66.90
58582;DHT22;44361;51.476;5.700;2023-06-26T13:41:24;23.80;66.60
58582;DHT22;44361;51.476;5.700;2023-06-26T13:43:50;23.20;68.10
58582;DHT22;44361;51.476;5.700;2023-06-26T13:46:16;23.20;69.10
58582;DHT22;44361;51.476;5.700;2023-06-26T13:48:42;24.10;68.40
58582;DHT22;44361;51.476;5.700;2023-06-26T13:51:08;24.40;67.30
58582;DHT22;44361;51.476;5.700;2023-06-26T13:53:33;24.00;65.40
58582;DHT22;44361;51.476;5.700;2023-06-26T13:55:59;24.10;66.80
58582;DHT22;44361;51.476;5.700;2023-06-26T13:58:24;23.90;65.90
58582;DHT22;44361;51.476;5.700;2023-06-26T14:00:52;24.00;68.10
58582;DHT22;44361;51.476;5.700;2023-06-26T14:03:18;24.30;66.20
58582;DHT22;44361;51.476;5.700;2023-06-26T14:05:44;24.50;64.80
58582;DHT22;44361;51.476;5.700;2023-06-26T14:08:10;24.50;64.90
58582;DHT22;44361;51.476;5.700;2023-06-26T14:10:36;24.30;64.70
58582;DHT22;44361;51.476;5.700;2023-06-26T14:13:02;24.10;64.00
58582;DHT22;44361;51.476;5.700;2023-06-26T14:15:29;23.90;65.00
58582;DHT22;44361;51.476;5.700;2023-06-26T14:17:54;24.40;67.50
58582;DHT22;44361;51.476;5.700;2023-06-26T14:20:21;24.30;65.90
58582;DHT22;44361;51.476;5.700;2023-06-26T14:22:48;23.90;66.80
58582;DHT22;44361;51.476;5.700;2023-06-26T14:25:14;23.50;67.90
58582;DHT22;44361;51.476;5.700;2023-06-26T14:27:40;23.40;67.70
58582;DHT22;44361;51.476;5.700;2023-06-26T14:30:06;23.20;67.50
58582;DHT22;44361;51.476;5.700;2023-06-26T14:32:33;23.40;67.80
58582;DHT22;44361;51.476;5.700;2023-06-26T14:34:59;23.50;67.40
58582;DHT22;44361;51.476;5.700;2023-06-26T14:37:25;24.10;67.80
58582;DHT22;44361;51.476;5.700;2023-06-26T14:39:51;24.80;68.00
58582;DHT22;44361;51.476;5.700;2023-06-26T14:42:16;24.70;65.80
58582;DHT22;44361;51.476;5.700;2023-06-26T14:44:42;24.10;67.00
58582;DHT22;44361;51.476;5.700;2023-06-26T14:47:13;23.70;66.80
58582;DHT22;44361;51.476;5.700;2023-06-26T14:49:42;23.40;68.20
58582;DHT22;44361;51.476;5.700;2023-06-26T14:52:07;23.30;67.90
58582;DHT22;44361;51.476;5.700;2023-06-26T14:54:33;23.50;69.30
58582;DHT22;44361;51.476;5.700;2023-06-26T14:57:04;23.80;70.10
58582;DHT22;44361;51.476;5.700;2023-06-26T14:59:29;24.80;68.20
58582;DHT22;44361;51.476;5.700;2023-06-26T15:01:55;25.10;66.40
58582;DHT22;44361;51.476;5.700;2023-06-26T15:04:21;24.60;68.20
58582;DHT22;44361;51.476;5.700;2023-06-26T15:06:46;23.90;67.50
58582;DHT22;44361;51.476;5.700;2023-06-26T15:09:12;23.60;67.90
58582;DHT22;44361;51.476;5.700;2023-06-26T15:11:37;23.30;68.10
58582;DHT22;44361;51.476;5.700;2023-06-26T15:14:03;23.10;67.50
58582;DHT22;44361;51.476;5.700;2023-06-26T15:16:29;23.00;67.40
58582;DHT22;44361;51.476;5.700;2023-06-26T15:18:54;23.00;66.20
58582;DHT22;44361;51.476;5.700;2023-06-26T15:21:20;23.00;66.30
58582;DHT22;44361;51.476;5.700;2023-06-26T15:23:50;22.80;67.40
58582;DHT22;44361;51.476;5.700;2023-06-26T15:26:16;22.70;65.40
58582;DHT22;44361;51.476;5.700;2023-06-26T15:28:42;22.70;65.70
58582;DHT22;44361;51.476;5.700;2023-06-26T15:31:07;22.60;66.20
58582;DHT22;44361;51.476;5.700;2023-06-26T15:33:33;22.60;67.50
58582;DHT22;44361;51.476;5.700;2023-06-26T15:35:58;22.60;65.70